Queniborough, United Kingdom
Current Conditions -  °F | °C
As of 2:20 PM on Thursday 29 Jan 2015 (Local Time) from EGNX Reporting Station
Scattered Clouds Scattered Clouds  
Wind Chill: 24°   Ceiling: Unl
Heat Index: 34°   Visibility: 6mi
Dew Point: 32°   Wind: 16mph
Humidity: 93%   Direction: 270°W
Pressure: 28.85"   Gusts: NA
Location:  52.71°N, 1.05°W
Report Text: EGNX 291420Z 27014KT 9999 FEW004 SCT010 01/00 Q0977
Loading
Personal Weather Stations






























Interactive Weather Map New forecast layout! Learn more

10-Day Weather Forecast

Advertisements
Track Severe Weather on mobile